sensor_id;sensor_type;location;lat;lon;timestamp;pressure;altitude;pressure_sealevel;temperature;humidity
67545;BME280;54380;47.770;11.150;2022-10-31T00:02:03;95310.53;;;12.41;60.26
67545;BME280;54380;47.770;11.150;2022-10-31T00:04:30;95315.22;;;12.34;60.17
67545;BME280;54380;47.770;11.150;2022-10-31T00:06:58;95318.38;;;12.31;60.80
67545;BME280;54380;47.770;11.150;2022-10-31T00:09:24;95324.72;;;12.30;60.78
67545;BME280;54380;47.770;11.150;2022-10-31T00:11:51;95322.59;;;12.27;60.75
67545;BME280;54380;47.770;11.150;2022-10-31T00:14:18;95326.53;;;12.24;60.70
67545;BME280;54380;47.770;11.150;2022-10-31T00:16:44;95321.72;;;12.21;60.67
67545;BME280;54380;47.770;11.150;2022-10-31T00:19:11;95321.91;;;12.15;60.36
67545;BME280;54380;47.770;11.150;2022-10-31T00:21:38;95330.03;;;12.08;60.17
67545;BME280;54380;47.770;11.150;2022-10-31T00:24:06;95325.25;;;12.05;60.47
67545;BME280;54380;47.770;11.150;2022-10-31T00:26:33;95322.03;;;12.03;61.50
67545;BME280;54380;47.770;11.150;2022-10-31T00:29:00;95332.16;;;12.06;61.75
67545;BME280;54380;47.770;11.150;2022-10-31T00:31:27;95324.50;;;12.10;61.62
67545;BME280;54380;47.770;11.150;2022-10-31T00:33:54;95319.22;;;12.10;60.92
67545;BME280;54380;47.770;11.150;2022-10-31T00:36:21;95317.88;;;12.07;60.99
67545;BME280;54380;47.770;11.150;2022-10-31T00:38:47;95323.38;;;12.05;61.19
67545;BME280;54380;47.770;11.150;2022-10-31T00:41:17;95320.75;;;12.05;60.77
67545;BME280;54380;47.770;11.150;2022-10-31T00:43:44;95319.09;;;11.99;60.66
67545;BME280;54380;47.770;11.150;2022-10-31T00:46:12;95322.47;;;11.95;60.94
67545;BME280;54380;47.770;11.150;2022-10-31T00:48:40;95317.97;;;11.90;60.41
67545;BME280;54380;47.770;11.150;2022-10-31T00:51:07;95323.16;;;11.85;60.81
67545;BME280;54380;47.770;11.150;2022-10-31T00:53:34;95332.91;;;11.84;61.06
67545;BME280;54380;47.770;11.150;2022-10-31T00:56:01;95328.44;;;11.85;61.34
67545;BME280;54380;47.770;11.150;2022-10-31T00:58:30;95326.81;;;11.84;60.90
67545;BME280;54380;47.770;11.150;2022-10-31T01:00:56;95330.22;;;11.79;60.96
67545;BME280;54380;47.770;11.150;2022-10-31T01:03:25;95323.03;;;11.75;61.16
67545;BME280;54380;47.770;11.150;2022-10-31T01:05:57;95325.91;;;11.73;61.71
67545;BME280;54380;47.770;11.150;2022-10-31T01:08:23;95329.63;;;11.72;61.78
67545;BME280;54380;47.770;11.150;2022-10-31T01:10:59;95325.13;;;11.73;61.84
67545;BME280;54380;47.770;11.150;2022-10-31T01:13:25;95320.63;;;11.73;62.50
67545;BME280;54380;47.770;11.150;2022-10-31T01:15:54;95326.75;;;11.79;62.17
67545;BME280;54380;47.770;11.150;2022-10-31T01:18:22;95320.91;;;11.77;61.10
67545;BME280;54380;47.770;11.150;2022-10-31T01:20:57;95320.63;;;11.73;61.12
67545;BME280;54380;47.770;11.150;2022-10-31T01:23:24;95317.06;;;11.62;61.34
67545;BME280;54380;47.770;11.150;2022-10-31T01:25:59;95321.78;;;11.60;60.99
67545;BME280;54380;47.770;11.150;2022-10-31T01:28:26;95327.81;;;11.56;61.57
67545;BME280;54380;47.770;11.150;2022-10-31T01:30:52;95322.53;;;11.56;61.94
67545;BME280;54380;47.770;11.150;2022-10-31T01:33:20;95315.63;;;11.55;62.03
67545;BME280;54380;47.770;11.150;2022-10-31T01:35:47;95322.78;;;11.54;61.77
67545;BME280;54380;47.770;11.150;2022-10-31T01:38:14;95312.19;;;11.54;61.72
67545;BME280;54380;47.770;11.150;2022-10-31T01:40:40;95320.13;;;11.54;61.86
67545;BME280;54380;47.770;11.150;2022-10-31T01:43:11;95320.94;;;11.55;61.93
67545;BME280;54380;47.770;11.150;2022-10-31T01:45:39;95319.00;;;11.50;61.45
67545;BME280;54380;47.770;11.150;2022-10-31T01:48:11;95316.06;;;11.47;61.65
67545;BME280;54380;47.770;11.150;2022-10-31T01:50:43;95316.56;;;11.43;61.98
67545;BME280;54380;47.770;11.150;2022-10-31T01:53:12;95314.16;;;11.42;62.42
67545;BME280;54380;47.770;11.150;2022-10-31T01:55:40;95312.56;;;11.41;62.36
67545;BME280;54380;47.770;11.150;2022-10-31T01:58:09;95316.22;;;11.40;61.87
67545;BME280;54380;47.770;11.150;2022-10-31T02:00:38;95312.25;;;11.37;61.59
67545;BME280;54380;47.770;11.150;2022-10-31T02:03:05;95314.00;;;11.32;61.70
67545;BME280;54380;47.770;11.150;2022-10-31T02:05:32;95307.38;;;11.29;62.15
67545;BME280;54380;47.770;11.150;2022-10-31T02:08:03;95310.50;;;11.26;61.73
67545;BME280;54380;47.770;11.150;2022-10-31T02:10:32;95306.50;;;11.24;62.25
67545;BME280;54380;47.770;11.150;2022-10-31T02:13:02;95313.31;;;11.19;62.34
67545;BME280;54380;47.770;11.150;2022-10-31T02:15:30;95310.13;;;11.17;62.11
67545;BME280;54380;47.770;11.150;2022-10-31T02:17:58;95302.69;;;11.14;61.80
67545;BME280;54380;47.770;11.150;2022-10-31T02:20:31;95297.06;;;11.11;62.15
67545;BME280;54380;47.770;11.150;2022-10-31T02:23:26;95299.97;;;11.09;61.54
67545;BME280;54380;47.770;11.150;2022-10-31T02:26:51;95292.47;;;11.01;61.28
67545;BME280;54380;47.770;11.150;2022-10-31T02:32:18;95294.63;;;10.87;61.87
67545;BME280;54380;47.770;11.150;2022-10-31T02:34:53;95294.56;;;10.82;61.87
67545;BME280;54380;47.770;11.150;2022-10-31T02:37:26;95290.78;;;10.78;61.79
67545;BME280;54380;47.770;11.150;2022-10-31T02:40:04;95290.50;;;10.74;61.88
67545;BME280;54380;47.770;11.150;2022-10-31T02:42:59;95293.13;;;10.74;62.55
67545;BME280;54380;47.770;11.150;2022-10-31T02:45:32;95291.03;;;10.76;63.20
67545;BME280;54380;47.770;11.150;2022-10-31T02:48:08;95288.47;;;10.82;62.99
67545;BME280;54380;47.770;11.150;2022-10-31T02:50:39;95288.22;;;10.83;63.07
67545;BME280;54380;47.770;11.150;2022-10-31T02:53:08;95296.72;;;10.85;63.54
67545;BME280;54380;47.770;11.150;2022-10-31T02:55:58;95289.41;;;10.92;63.17
67545;BME280;54380;47.770;11.150;2022-10-31T02:58:30;95290.47;;;10.91;63.67
67545;BME280;54380;47.770;11.150;2022-10-31T03:01:18;95286.53;;;10.94;63.01
67545;BME280;54380;47.770;11.150;2022-10-31T03:03:57;95296.53;;;10.92;63.76
67545;BME280;54380;47.770;11.150;2022-10-31T03:06:30;95303.97;;;10.95;63.55
67545;BME280;54380;47.770;11.150;2022-10-31T03:09:03;95289.75;;;10.96;63.70
67545;BME280;54380;47.770;11.150;2022-10-31T03:11:42;95289.25;;;10.99;63.55
67545;BME280;54380;47.770;11.150;2022-10-31T03:14:13;95293.81;;;11.04;63.70
67545;BME280;54380;47.770;11.150;2022-10-31T03:16:47;95289.34;;;11.04;63.53
67545;BME280;54380;47.770;11.150;2022-10-31T03:19:16;95294.06;;;11.02;63.88
67545;BME280;54380;47.770;11.150;2022-10-31T03:21:46;95298.28;;;11.03;62.74
67545;BME280;54380;47.770;11.150;2022-10-31T03:24:15;95287.34;;;10.94;62.74
67545;BME280;54380;47.770;11.150;2022-10-31T03:26:46;95293.59;;;10.88;62.39
67545;BME280;54380;47.770;11.150;2022-10-31T03:29:16;95293.03;;;10.86;62.25
67545;BME280;54380;47.770;11.150;2022-10-31T03:31:49;95290.88;;;10.83;62.44
67545;BME280;54380;47.770;11.150;2022-10-31T03:34:21;95289.22;;;10.77;62.15
67545;BME280;54380;47.770;11.150;2022-10-31T03:36:51;95289.66;;;10.74;62.78
67545;BME280;54380;47.770;11.150;2022-10-31T03:39:20;95286.50;;;10.72;62.20
67545;BME280;54380;47.770;11.150;2022-10-31T03:41:54;95296.72;;;10.68;61.74
67545;BME280;54380;47.770;11.150;2022-10-31T03:44:26;95292.41;;;10.62;62.42
67545;BME280;54380;47.770;11.150;2022-10-31T03:47:01;95290.47;;;10.58;61.95
67545;BME280;54380;47.770;11.150;2022-10-31T03:49:32;95290.16;;;10.54;62.68
67545;BME280;54380;47.770;11.150;2022-10-31T03:52:03;95293.75;;;10.48;62.28
67545;BME280;54380;47.770;11.150;2022-10-31T03:54:39;95288.41;;;10.43;62.58
67545;BME280;54380;47.770;11.150;2022-10-31T03:57:14;95282.56;;;10.41;62.70
67545;BME280;54380;47.770;11.150;2022-10-31T03:59:45;95288.84;;;10.40;62.78
67545;BME280;54380;47.770;11.150;2022-10-31T04:02:15;95292.31;;;10.40;62.85
67545;BME280;54380;47.770;11.150;2022-10-31T04:04:46;95291.50;;;10.40;63.27
67545;BME280;54380;47.770;11.150;2022-10-31T04:07:15;95288.78;;;10.35;63.06
67545;BME280;54380;47.770;11.150;2022-10-31T04:09:44;95294.00;;;10.29;62.70
67545;BME280;54380;47.770;11.150;2022-10-31T04:12:13;95292.81;;;10.25;62.85
67545;BME280;54380;47.770;11.150;2022-10-31T04:15:09;95301.22;;;10.22;63.97
67545;BME280;54380;47.770;11.150;2022-10-31T04:17:40;95299.69;;;10.26;63.76
67545;BME280;54380;47.770;11.150;2022-10-31T04:20:11;95301.53;;;10.26;64.80
67545;BME280;54380;47.770;11.150;2022-10-31T04:22:38;95299.56;;;10.33;64.48
67545;BME280;54380;47.770;11.150;2022-10-31T04:25:06;95302.53;;;10.37;63.54
67545;BME280;54380;47.770;11.150;2022-10-31T04:27:33;95303.00;;;10.33;63.17
67545;BME280;54380;47.770;11.150;2022-10-31T04:30:00;95301.34;;;10.27;62.68
67545;BME280;54380;47.770;11.150;2022-10-31T04:32:27;95306.22;;;10.24;62.29
67545;BME280;54380;47.770;11.150;2022-10-31T04:34:54;95308.34;;;10.22;62.96
67545;BME280;54380;47.770;11.150;2022-10-31T04:37:22;95305.34;;;10.18;63.28
67545;BME280;54380;47.770;11.150;2022-10-31T04:39:49;95297.91;;;10.15;63.04
67545;BME280;54380;47.770;11.150;2022-10-31T04:42:34;95303.41;;;10.14;62.80
67545;BME280;54380;47.770;11.150;2022-10-31T04:45:03;95299.44;;;10.11;62.67
67545;BME280;54380;47.770;11.150;2022-10-31T04:47:32;95300.38;;;10.05;62.40
67545;BME280;54380;47.770;11.150;2022-10-31T04:50:00;95296.84;;;9.99;62.01
67545;BME280;54380;47.770;11.150;2022-10-31T04:52:28;95292.84;;;9.97;63.19
67545;BME280;54380;47.770;11.150;2022-10-31T04:54:56;95292.03;;;9.96;63.91
67545;BME280;54380;47.770;11.150;2022-10-31T04:57:52;95295.47;;;9.97;64.60
67545;BME280;54380;47.770;11.150;2022-10-31T05:00:21;95296.84;;;9.99;65.18
67545;BME280;54380;47.770;11.150;2022-10-31T05:02:50;95294.28;;;10.04;64.77
67545;BME280;54380;47.770;11.150;2022-10-31T05:05:18;95295.44;;;10.08;65.42
67545;BME280;54380;47.770;11.150;2022-10-31T05:07:48;95294.69;;;10.13;64.09
67545;BME280;54380;47.770;11.150;2022-10-31T05:10:19;95291.84;;;10.15;64.08
67545;BME280;54380;47.770;11.150;2022-10-31T05:12:49;95292.16;;;10.18;64.90
67545;BME280;54380;47.770;11.150;2022-10-31T05:15:41;95290.09;;;10.20;63.94
67545;BME280;54380;47.770;11.150;2022-10-31T05:18:14;95287.69;;;10.19;62.91
67545;BME280;54380;47.770;11.150;2022-10-31T05:21:04;95282.56;;;10.12;63.34
67545;BME280;54380;47.770;11.150;2022-10-31T05:23:36;95282.47;;;10.07;63.05
67545;BME280;54380;47.770;11.150;2022-10-31T05:26:05;95288.69;;;10.01;63.14
67545;BME280;54380;47.770;11.150;2022-10-31T05:28:32;95279.66;;;9.97;63.37
67545;BME280;54380;47.770;11.150;2022-10-31T05:30:59;95282.28;;;9.97;62.86
67545;BME280;54380;47.770;11.150;2022-10-31T05:33:26;95280.34;;;9.92;62.56
67545;BME280;54380;47.770;11.150;2022-10-31T05:36:12;95282.34;;;9.85;62.76
67545;BME280;54380;47.770;11.150;2022-10-31T05:38:49;95283.03;;;9.80;62.82
67545;BME280;54380;47.770;11.150;2022-10-31T05:41:23;95275.84;;;9.76;62.74
67545;BME280;54380;47.770;11.150;2022-10-31T05:43:50;95276.31;;;9.73;63.25
67545;BME280;54380;47.770;11.150;2022-10-31T05:46:21;95280.00;;;9.72;63.06
67545;BME280;54380;47.770;11.150;2022-10-31T05:49:06;95274.16;;;9.70;64.09
67545;BME280;54380;47.770;11.150;2022-10-31T05:51:52;95273.34;;;9.69;63.30
67545;BME280;54380;47.770;11.150;2022-10-31T05:54:25;95274.75;;;9.60;62.22
67545;BME280;54380;47.770;11.150;2022-10-31T05:56:52;95270.88;;;9.51;63.11
67545;BME280;54380;47.770;11.150;2022-10-31T05:59:19;95273.97;;;9.48;63.22
67545;BME280;54380;47.770;11.150;2022-10-31T06:01:46;95272.94;;;9.49;64.34
67545;BME280;54380;47.770;11.150;2022-10-31T06:04:29;95268.25;;;9.51;63.84
67545;BME280;54380;47.770;11.150;2022-10-31T06:06:57;95266.97;;;9.53;63.43
67545;BME280;54380;47.770;11.150;2022-10-31T06:09:25;95263.63;;;9.58;63.63
67545;BME280;54380;47.770;11.150;2022-10-31T06:11:52;95269.94;;;9.57;64.14
67545;BME280;54380;47.770;11.150;2022-10-31T06:14:25;95271.31;;;9.59;64.56
67545;BME280;54380;47.770;11.150;2022-10-31T06:16:54;95267.41;;;9.62;64.55
67545;BME280;54380;47.770;11.150;2022-10-31T06:19:56;95264.53;;;9.63;63.42
67545;BME280;54380;47.770;11.150;2022-10-31T06:22:25;95261.34;;;9.61;63.73
67545;BME280;54380;47.770;11.150;2022-10-31T06:24:54;95254.22;;;9.62;64.18
67545;BME280;54380;47.770;11.150;2022-10-31T06:27:27;95261.88;;;9.63;64.16
67545;BME280;54380;47.770;11.150;2022-10-31T06:29:54;95261.97;;;9.68;64.52
67545;BME280;54380;47.770;11.150;2022-10-31T06:32:30;95256.50;;;9.70;65.16
67545;BME280;54380;47.770;11.150;2022-10-31T06:34:57;95265.75;;;9.73;64.98
67545;BME280;54380;47.770;11.150;2022-10-31T06:37:24;95259.78;;;9.77;64.72
67545;BME280;54380;47.770;11.150;2022-10-31T06:39:54;95256.78;;;9.85;65.15
67545;BME280;54380;47.770;11.150;2022-10-31T06:42:21;95262.38;;;9.89;64.23
67545;BME280;54380;47.770;11.150;2022-10-31T06:44:48;95263.25;;;9.95;64.97
67545;BME280;54380;47.770;11.150;2022-10-31T06:47:33;95252.56;;;10.01;64.67
67545;BME280;54380;47.770;11.150;2022-10-31T06:50:16;95251.88;;;10.06;64.30
67545;BME280;54380;47.770;11.150;2022-10-31T06:52:49;95247.97;;;10.08;64.49
67545;BME280;54380;47.770;11.150;2022-10-31T06:55:18;95257.78;;;10.13;64.27
67545;BME280;54380;47.770;11.150;2022-10-31T06:57:49;95252.09;;;10.21;63.92
67545;BME280;54380;47.770;11.150;2022-10-31T07:00:16;95258.28;;;10.27;64.23
67545;BME280;54380;47.770;11.150;2022-10-31T07:02:53;95256.66;;;10.38;63.43
67545;BME280;54380;47.770;11.150;2022-10-31T07:05:22;95255.69;;;10.44;63.27
67545;BME280;54380;47.770;11.150;2022-10-31T07:07:52;95262.16;;;10.53;62.83
67545;BME280;54380;47.770;11.150;2022-10-31T07:10:23;95261.38;;;10.69;63.36
67545;BME280;54380;47.770;11.150;2022-10-31T07:12:57;95260.63;;;10.91;63.07
67545;BME280;54380;47.770;11.150;2022-10-31T07:15:24;95253.28;;;11.15;63.14
67545;BME280;54380;47.770;11.150;2022-10-31T07:17:52;95247.50;;;11.40;62.77
67545;BME280;54380;47.770;11.150;2022-10-31T07:20:18;95245.16;;;11.65;62.75
67545;BME280;54380;47.770;11.150;2022-10-31T07:22:46;95253.41;;;11.91;61.97
67545;BME280;54380;47.770;11.150;2022-10-31T07:25:16;95254.97;;;12.14;61.76
67545;BME280;54380;47.770;11.150;2022-10-31T07:28:07;95259.69;;;12.39;61.37
67545;BME280;54380;47.770;11.150;2022-10-31T07:30:34;95260.41;;;12.62;61.36
67545;BME280;54380;47.770;11.150;2022-10-31T07:33:00;95251.53;;;12.83;60.91
67545;BME280;54380;47.770;11.150;2022-10-31T07:35:59;95250.88;;;13.08;60.54
67545;BME280;54380;47.770;11.150;2022-10-31T07:38:29;95252.91;;;13.28;59.91
67545;BME280;54380;47.770;11.150;2022-10-31T07:40:58;95252.44;;;13.47;59.57
67545;BME280;54380;47.770;11.150;2022-10-31T07:43:28;95250.09;;;13.60;59.27
67545;BME280;54380;47.770;11.150;2022-10-31T07:46:14;95246.47;;;13.87;59.03
67545;BME280;54380;47.770;11.150;2022-10-31T07:48:59;95249.19;;;14.08;58.54
67545;BME280;54380;47.770;11.150;2022-10-31T07:51:45;95248.13;;;14.24;58.33
67545;BME280;54380;47.770;11.150;2022-10-31T07:54:30;95251.06;;;14.48;58.28
67545;BME280;54380;47.770;11.150;2022-10-31T07:56:57;95243.94;;;14.74;58.03
67545;BME280;54380;47.770;11.150;2022-10-31T07:59:25;95243.13;;;14.99;57.87
67545;BME280;54380;47.770;11.150;2022-10-31T08:01:53;95229.50;;;15.16;57.19
67545;BME280;54380;47.770;11.150;2022-10-31T08:04:29;95233.44;;;15.39;57.70
67545;BME280;54380;47.770;11.150;2022-10-31T08:07:14;95232.53;;;15.64;57.26
67545;BME280;54380;47.770;11.150;2022-10-31T08:09:47;95235.38;;;15.88;56.51
67545;BME280;54380;47.770;11.150;2022-10-31T08:12:19;95232.56;;;16.09;56.46
67545;BME280;54380;47.770;11.150;2022-10-31T08:14:47;95235.13;;;16.29;56.24
67545;BME280;54380;47.770;11.150;2022-10-31T08:17:17;95228.56;;;16.51;56.22
67545;BME280;54380;47.770;11.150;2022-10-31T08:19:54;95229.13;;;16.77;56.22
67545;BME280;54380;47.770;11.150;2022-10-31T08:22:27;95227.63;;;17.00;55.41
67545;BME280;54380;47.770;11.150;2022-10-31T08:24:54;95221.09;;;17.11;54.98
67545;BME280;54380;47.770;11.150;2022-10-31T08:27:21;95226.69;;;17.15;55.14
67545;BME280;54380;47.770;11.150;2022-10-31T08:29:49;95218.44;;;17.11;54.49
67545;BME280;54380;47.770;11.150;2022-10-31T08:32:15;95220.38;;;17.05;54.31
67545;BME280;54380;47.770;11.150;2022-10-31T08:35:00;95221.16;;;17.06;54.63
67545;BME280;54380;47.770;11.150;2022-10-31T08:37:36;95214.94;;;17.16;54.61
67545;BME280;54380;47.770;11.150;2022-10-31T08:40:05;95221.78;;;17.22;54.54
67545;BME280;54380;47.770;11.150;2022-10-31T08:42:34;95214.81;;;17.26;54.28
67545;BME280;54380;47.770;11.150;2022-10-31T08:45:02;95211.00;;;17.32;54.00
67545;BME280;54380;47.770;11.150;2022-10-31T08:47:31;95215.72;;;17.40;54.22
67545;BME280;54380;47.770;11.150;2022-10-31T08:49:58;95211.34;;;17.49;54.21
67545;BME280;54380;47.770;11.150;2022-10-31T08:52:25;95214.16;;;17.58;53.54
67545;BME280;54380;47.770;11.150;2022-10-31T08:55:12;95199.19;;;17.62;53.35
67545;BME280;54380;47.770;11.150;2022-10-31T08:58:01;95201.41;;;17.55;53.76
67545;BME280;54380;47.770;11.150;2022-10-31T09:00:38;95200.41;;;17.51;53.38
67545;BME280;54380;47.770;11.150;2022-10-31T09:03:14;95205.75;;;17.51;53.75
67545;BME280;54380;47.770;11.150;2022-10-31T09:05:42;95197.16;;;17.54;53.15
67545;BME280;54380;47.770;11.150;2022-10-31T09:08:10;95202.50;;;17.54;53.20
67545;BME280;54380;47.770;11.150;2022-10-31T09:10:43;95191.31;;;17.71;53.51
67545;BME280;54380;47.770;11.150;2022-10-31T09:13:15;95187.84;;;17.94;53.87
67545;BME280;54380;47.770;11.150;2022-10-31T09:16:02;95183.81;;;18.30;53.87
67545;BME280;54380;47.770;11.150;2022-10-31T09:18:30;95172.56;;;18.65;53.50
67545;BME280;54380;47.770;11.150;2022-10-31T09:20:59;95174.72;;;18.96;53.00
67545;BME280;54380;47.770;11.150;2022-10-31T09:23:29;95167.31;;;19.21;52.63
67545;BME280;54380;47.770;11.150;2022-10-31T09:25:55;95167.00;;;19.36;52.06
67545;BME280;54380;47.770;11.150;2022-10-31T09:28:33;95169.75;;;19.59;52.29
67545;BME280;54380;47.770;11.150;2022-10-31T09:31:07;95168.50;;;19.92;52.12
67545;BME280;54380;47.770;11.150;2022-10-31T09:33:56;95164.75;;;20.16;50.88
67545;BME280;54380;47.770;11.150;2022-10-31T09:36:35;95158.13;;;20.13;50.40
67545;BME280;54380;47.770;11.150;2022-10-31T09:39:03;95164.53;;;20.04;50.22
67545;BME280;54380;47.770;11.150;2022-10-31T09:41:50;95162.66;;;19.90;50.27
67545;BME280;54380;47.770;11.150;2022-10-31T09:44:31;95160.34;;;19.75;50.53
67545;BME280;54380;47.770;11.150;2022-10-31T09:47:03;95157.75;;;19.56;50.54
67545;BME280;54380;47.770;11.150;2022-10-31T09:49:48;95159.84;;;19.45;50.71
67545;BME280;54380;47.770;11.150;2022-10-31T09:52:20;95153.91;;;19.35;50.86
67545;BME280;54380;47.770;11.150;2022-10-31T09:54:52;95149.47;;;19.30;50.95
67545;BME280;54380;47.770;11.150;2022-10-31T09:57:25;95148.47;;;19.26;51.06
67545;BME280;54380;47.770;11.150;2022-10-31T09:59:53;95147.19;;;19.23;51.15
67545;BME280;54380;47.770;11.150;2022-10-31T10:02:26;95142.72;;;19.19;51.19
67545;BME280;54380;47.770;11.150;2022-10-31T10:04:57;95151.34;;;19.16;51.28
67545;BME280;54380;47.770;11.150;2022-10-31T10:07:32;95139.66;;;19.12;51.01
67545;BME280;54380;47.770;11.150;2022-10-31T10:10:44;95139.25;;;19.04;51.25
67545;BME280;54380;47.770;11.150;2022-10-31T10:13:42;95147.56;;;19.03;51.62
67545;BME280;54380;47.770;11.150;2022-10-31T10:16:22;95145.22;;;19.01;51.42
67545;BME280;54380;47.770;11.150;2022-10-31T10:19:02;95140.16;;;19.00;51.27
67545;BME280;54380;47.770;11.150;2022-10-31T10:21:38;95142.03;;;18.99;51.39
67545;BME280;54380;47.770;11.150;2022-10-31T10:24:17;95140.97;;;19.14;51.45
67545;BME280;54380;47.770;11.150;2022-10-31T10:26:51;95129.44;;;19.41;51.64
67545;BME280;54380;47.770;11.150;2022-10-31T10:29:30;95120.66;;;19.63;51.03
67545;BME280;54380;47.770;11.150;2022-10-31T10:32:00;95119.00;;;19.67;50.80
67545;BME280;54380;47.770;11.150;2022-10-31T10:34:31;95121.34;;;19.69;50.63
67545;BME280;54380;47.770;11.150;2022-10-31T10:37:03;95118.38;;;19.70;50.68
67545;BME280;54380;47.770;11.150;2022-10-31T10:39:35;95116.50;;;19.71;50.58
67545;BME280;54380;47.770;11.150;2022-10-31T10:42:09;95111.63;;;19.73;50.29
67545;BME280;54380;47.770;11.150;2022-10-31T10:44:56;95108.16;;;19.72;50.48
67545;BME280;54380;47.770;11.150;2022-10-31T10:47:43;95108.84;;;19.78;50.62
67545;BME280;54380;47.770;11.150;2022-10-31T10:50:15;95108.28;;;19.90;50.78
67545;BME280;54380;47.770;11.150;2022-10-31T10:52:50;95099.72;;;20.02;50.18
67545;BME280;54380;47.770;11.150;2022-10-31T10:55:29;95106.00;;;20.20;50.43
67545;BME280;54380;47.770;11.150;2022-10-31T10:58:01;95099.81;;;20.42;50.32
67545;BME280;54380;47.770;11.150;2022-10-31T11:00:31;95097.09;;;20.55;50.21
67545;BME280;54380;47.770;11.150;2022-10-31T11:02:58;95083.72;;;20.64;50.01
67545;BME280;54380;47.770;11.150;2022-10-31T11:05:30;95087.38;;;20.68;49.89
67545;BME280;54380;47.770;11.150;2022-10-31T11:07:59;95084.69;;;20.68;49.94
67545;BME280;54380;47.770;11.150;2022-10-31T11:10:26;95082.31;;;20.67;50.02
67545;BME280;54380;47.770;11.150;2022-10-31T11:13:03;95076.00;;;20.63;50.20
67545;BME280;54380;47.770;11.150;2022-10-31T11:15:33;95077.41;;;20.60;50.03
67545;BME280;54380;47.770;11.150;2022-10-31T11:18:01;95068.69;;;20.54;50.00
67545;BME280;54380;47.770;11.150;2022-10-31T11:20:34;95067.38;;;20.52;49.98
67545;BME280;54380;47.770;11.150;2022-10-31T11:23:10;95072.75;;;20.52;50.04
67545;BME280;54380;47.770;11.150;2022-10-31T11:25:48;95067.69;;;20.50;50.00
67545;BME280;54380;47.770;11.150;2022-10-31T11:28:16;95066.41;;;20.48;49.81
67545;BME280;54380;47.770;11.150;2022-10-31T11:30:44;95071.00;;;20.47;50.01
67545;BME280;54380;47.770;11.150;2022-10-31T11:33:17;95069.72;;;20.45;50.03
67545;BME280;54380;47.770;11.150;2022-10-31T11:35:54;95063.88;;;20.43;50.24
67545;BME280;54380;47.770;11.150;2022-10-31T11:38:28;95060.72;;;20.41;50.27
67545;BME280;54380;47.770;11.150;2022-10-31T11:40:59;95052.47;;;20.37;50.14
67545;BME280;54380;47.770;11.150;2022-10-31T11:43:30;95049.03;;;20.36;50.31
67545;BME280;54380;47.770;11.150;2022-10-31T11:45:57;95048.09;;;20.41;50.33
67545;BME280;54380;47.770;11.150;2022-10-31T11:48:26;95047.78;;;20.43;49.30
67545;BME280;54380;47.770;11.150;2022-10-31T11:50:56;95049.50;;;20.38;49.82
67545;BME280;54380;47.770;11.150;2022-10-31T11:53:30;95042.13;;;20.44;49.54
67545;BME280;54380;47.770;11.150;2022-10-31T11:56:06;95045.94;;;20.52;49.79
67545;BME280;54380;47.770;11.150;2022-10-31T11:58:58;95043.03;;;20.62;49.19
67545;BME280;54380;47.770;11.150;2022-10-31T12:01:27;95031.81;;;20.60;48.74
67545;BME280;54380;47.770;11.150;2022-10-31T12:04:02;95037.16;;;20.60;49.38
67545;BME280;54380;47.770;11.150;2022-10-31T12:06:34;95041.41;;;20.61;49.66
67545;BME280;54380;47.770;11.150;2022-10-31T12:09:20;95035.44;;;20.64;49.38
67545;BME280;54380;47.770;11.150;2022-10-31T12:12:05;95031.81;;;20.69;49.41
67545;BME280;54380;47.770;11.150;2022-10-31T12:15:00;95035.78;;;20.71;49.64
67545;BME280;54380;47.770;11.150;2022-10-31T12:17:35;95028.72;;;20.75;49.74
67545;BME280;54380;47.770;11.150;2022-10-31T12:20:17;95027.47;;;20.81;49.81
67545;BME280;54380;47.770;11.150;2022-10-31T12:23:00;95017.06;;;20.89;49.75
67545;BME280;54380;47.770;11.150;2022-10-31T12:25:37;95014.25;;;20.94;49.50
67545;BME280;54380;47.770;11.150;2022-10-31T12:28:19;95014.25;;;20.94;49.59
67545;BME280;54380;47.770;11.150;2022-10-31T12:30:51;95007.41;;;20.88;49.79
67545;BME280;54380;47.770;11.150;2022-10-31T12:33:32;94998.59;;;20.87;49.82
67545;BME280;54380;47.770;11.150;2022-10-31T12:36:19;95004.28;;;20.86;49.73
67545;BME280;54380;47.770;11.150;2022-10-31T12:39:04;94996.84;;;20.82;49.72
67545;BME280;54380;47.770;11.150;2022-10-31T12:41:46;94995.56;;;20.80;49.95
67545;BME280;54380;47.770;11.150;2022-10-31T12:47:18;94993.38;;;20.82;50.02
67545;BME280;54380;47.770;11.150;2022-10-31T12:49:56;94984.25;;;20.83;50.28
67545;BME280;54380;47.770;11.150;2022-10-31T12:52:39;94977.59;;;20.80;49.61
67545;BME280;54380;47.770;11.150;2022-10-31T12:55:31;94973.31;;;20.71;49.27
67545;BME280;54380;47.770;11.150;2022-10-31T12:58:06;94973.44;;;20.57;49.72
67545;BME280;54380;47.770;11.150;2022-10-31T13:00:38;94973.84;;;20.50;50.03
67545;BME280;54380;47.770;11.150;2022-10-31T13:03:18;94974.16;;;20.49;50.26
67545;BME280;54380;47.770;11.150;2022-10-31T13:05:48;94960.66;;;20.54;50.16
67545;BME280;54380;47.770;11.150;2022-10-31T13:08:17;94964.13;;;20.63;50.38
67545;BME280;54380;47.770;11.150;2022-10-31T13:10:50;94963.84;;;20.65;50.08
67545;BME280;54380;47.770;11.150;2022-10-31T13:13:22;94960.69;;;20.71;50.21
67545;BME280;54380;47.770;11.150;2022-10-31T13:15:51;94953.63;;;20.84;50.04
67545;BME280;54380;47.770;11.150;2022-10-31T13:18:27;94949.69;;;20.99;49.75
67545;BME280;54380;47.770;11.150;2022-10-31T13:20:55;94955.38;;;21.06;49.59
67545;BME280;54380;47.770;11.150;2022-10-31T13:23:30;94941.00;;;21.19;49.08
67545;BME280;54380;47.770;11.150;2022-10-31T13:26:24;94939.59;;;21.22;48.91
67545;BME280;54380;47.770;11.150;2022-10-31T13:29:00;94941.16;;;21.32;48.83